Decoded Metar for VOCB (COIMBATORE in INDIA) (IATA:CJB) | Meteo·Mobile Aviation Weather
aviador You're here:

VOCB Decoded Metar

COIMBATORE in INDIA
Report Time2019-07-22 16:00:00
UTC Time2019-07-22 16:27:43
Flight Rules ifr IFR
Wind200° at 03 kt
W.Decomp.*RWY 23: 2.6 kt HW 1.4 kt LCW
Visibility3000 m
Phenomena:Rain
Clouds:Few 008 Hf
Scattered 012 Hf
Broken 080 Hf
Expected CloudBase > 400 ft AGL from Temp-Dew spread
Ceiling8,000 ft
Temp23°C (ISA +11)
Dew Point22°C (94% RH)
QNH1010 hPa
Density Alt2,995 ft
Elevation1,309 ft
Report Wrong Elevation
Raw Report
METAR VOCB 221600Z 20003KT 3000 RA FEW008 SCT012 BKN080 23/22 Q1010
NOSIG=

Extra information for VOCB:More info

Metar Taf Metar & Taf Last 4 Metars F.Rules Stats Wind Profile Meteogram Temp Stats Airport Information Weather charts Add Link Nearby VenuesMetar ALERT Operation Metar Decoded Social comments